sensor_id;sensor_type;location;lat;lon;timestamp;P1;durP1;ratioP1;P2;durP2;ratioP2
15748;SDS011;7976;52.526;13.326;2023-04-06T00:00:33;11.90;;;4.30;;
15748;SDS011;7976;52.526;13.326;2023-04-06T00:03:00;9.18;;;3.80;;
15748;SDS011;7976;52.526;13.326;2023-04-06T00:05:27;10.80;;;4.30;;
15748;SDS011;7976;52.526;13.326;2023-04-06T00:07:55;10.38;;;4.15;;
15748;SDS011;7976;52.526;13.326;2023-04-06T00:10:23;14.82;;;6.63;;
15748;SDS011;7976;52.526;13.326;2023-04-06T00:12:51;11.07;;;4.35;;
15748;SDS011;7976;52.526;13.326;2023-04-06T00:15:18;13.48;;;4.47;;
15748;SDS011;7976;52.526;13.326;2023-04-06T00:17:46;11.52;;;4.35;;
15748;SDS011;7976;52.526;13.326;2023-04-06T00:20:13;10.23;;;3.38;;
15748;SDS011;7976;52.526;13.326;2023-04-06T00:22:40;12.07;;;4.55;;
15748;SDS011;7976;52.526;13.326;2023-04-06T00:25:08;9.50;;;3.83;;
15748;SDS011;7976;52.526;13.326;2023-04-06T00:27:36;9.32;;;3.97;;
15748;SDS011;7976;52.526;13.326;2023-04-06T00:30:03;12.75;;;4.60;;
15748;SDS011;7976;52.526;13.326;2023-04-06T00:32:31;9.50;;;3.95;;
15748;SDS011;7976;52.526;13.326;2023-04-06T00:34:59;8.18;;;3.38;;
15748;SDS011;7976;52.526;13.326;2023-04-06T00:37:27;10.38;;;3.97;;
15748;SDS011;7976;52.526;13.326;2023-04-06T00:39:54;11.25;;;3.95;;
15748;SDS011;7976;52.526;13.326;2023-04-06T00:42:21;10.80;;;3.92;;
15748;SDS011;7976;52.526;13.326;2023-04-06T00:44:51;10.93;;;3.65;;
15748;SDS011;7976;52.526;13.326;2023-04-06T00:47:19;11.00;;;3.67;;
15748;SDS011;7976;52.526;13.326;2023-04-06T00:49:46;12.70;;;4.50;;
15748;SDS011;7976;52.526;13.326;2023-04-06T00:52:15;11.48;;;4.38;;
15748;SDS011;7976;52.526;13.326;2023-04-06T00:54:44;12.60;;;4.55;;
15748;SDS011;7976;52.526;13.326;2023-04-06T00:57:12;10.80;;;4.10;;
15748;SDS011;7976;52.526;13.326;2023-04-06T00:59:41;12.00;;;3.65;;
15748;SDS011;7976;52.526;13.326;2023-04-06T01:02:11;11.98;;;3.70;;
15748;SDS011;7976;52.526;13.326;2023-04-06T01:04:43;9.10;;;3.65;;
15748;SDS011;7976;52.526;13.326;2023-04-06T01:07:20;12.35;;;3.67;;
15748;SDS011;7976;52.526;13.326;2023-04-06T01:10:01;11.25;;;3.80;;
15748;SDS011;7976;52.526;13.326;2023-04-06T01:12:30;10.40;;;4.22;;
15748;SDS011;7976;52.526;13.326;2023-04-06T01:15:00;10.93;;;3.75;;
15748;SDS011;7976;52.526;13.326;2023-04-06T01:17:29;11.30;;;3.58;;
15748;SDS011;7976;52.526;13.326;2023-04-06T01:20:04;9.63;;;3.72;;
15748;SDS011;7976;52.526;13.326;2023-04-06T01:22:35;9.38;;;3.28;;
15748;SDS011;7976;52.526;13.326;2023-04-06T01:25:02;9.20;;;3.20;;
15748;SDS011;7976;52.526;13.326;2023-04-06T01:27:40;10.32;;;3.13;;
15748;SDS011;7976;52.526;13.326;2023-04-06T01:30:10;9.70;;;3.42;;
15748;SDS011;7976;52.526;13.326;2023-04-06T01:32:43;9.52;;;3.70;;
15748;SDS011;7976;52.526;13.326;2023-04-06T01:35:13;11.35;;;3.90;;
15748;SDS011;7976;52.526;13.326;2023-04-06T01:37:49;9.30;;;3.00;;
15748;SDS011;7976;52.526;13.326;2023-04-06T01:40:23;10.20;;;3.42;;
15748;SDS011;7976;52.526;13.326;2023-04-06T01:42:51;9.40;;;3.53;;
15748;SDS011;7976;52.526;13.326;2023-04-06T01:45:26;9.88;;;3.65;;
15748;SDS011;7976;52.526;13.326;2023-04-06T01:47:58;11.25;;;3.97;;
15748;SDS011;7976;52.526;13.326;2023-04-06T01:50:26;11.27;;;3.72;;
15748;SDS011;7976;52.526;13.326;2023-04-06T01:52:54;10.95;;;3.70;;
15748;SDS011;7976;52.526;13.326;2023-04-06T01:55:23;12.85;;;4.40;;
15748;SDS011;7976;52.526;13.326;2023-04-06T01:58:14;10.45;;;3.83;;
15748;SDS011;7976;52.526;13.326;2023-04-06T02:00:41;11.77;;;4.07;;
15748;SDS011;7976;52.526;13.326;2023-04-06T02:03:13;10.52;;;3.45;;
15748;SDS011;7976;52.526;13.326;2023-04-06T02:05:43;9.55;;;3.92;;
15748;SDS011;7976;52.526;13.326;2023-04-06T02:08:20;10.68;;;4.18;;
15748;SDS011;7976;52.526;13.326;2023-04-06T02:10:47;11.65;;;4.10;;
15748;SDS011;7976;52.526;13.326;2023-04-06T02:13:23;9.57;;;3.67;;
15748;SDS011;7976;52.526;13.326;2023-04-06T02:15:52;11.95;;;3.80;;
15748;SDS011;7976;52.526;13.326;2023-04-06T02:18:19;13.00;;;3.63;;
15748;SDS011;7976;52.526;13.326;2023-04-06T02:20:46;10.05;;;3.65;;
15748;SDS011;7976;52.526;13.326;2023-04-06T02:23:13;12.10;;;4.10;;
15748;SDS011;7976;52.526;13.326;2023-04-06T02:25:41;12.60;;;3.80;;
15748;SDS011;7976;52.526;13.326;2023-04-06T02:28:08;10.40;;;3.63;;
15748;SDS011;7976;52.526;13.326;2023-04-06T02:30:35;11.40;;;3.78;;
15748;SDS011;7976;52.526;13.326;2023-04-06T02:33:03;10.77;;;3.88;;
15748;SDS011;7976;52.526;13.326;2023-04-06T02:35:38;10.80;;;4.20;;
15748;SDS011;7976;52.526;13.326;2023-04-06T02:38:06;12.07;;;4.18;;
15748;SDS011;7976;52.526;13.326;2023-04-06T02:40:32;9.98;;;3.60;;
15748;SDS011;7976;52.526;13.326;2023-04-06T02:43:09;10.05;;;4.03;;
15748;SDS011;7976;52.526;13.326;2023-04-06T02:45:36;10.32;;;3.72;;
15748;SDS011;7976;52.526;13.326;2023-04-06T02:48:03;13.27;;;4.28;;
15748;SDS011;7976;52.526;13.326;2023-04-06T02:50:31;10.40;;;3.42;;
15748;SDS011;7976;52.526;13.326;2023-04-06T02:53:02;11.40;;;3.80;;
15748;SDS011;7976;52.526;13.326;2023-04-06T02:55:29;9.90;;;3.60;;
15748;SDS011;7976;52.526;13.326;2023-04-06T02:57:56;11.13;;;3.50;;
15748;SDS011;7976;52.526;13.326;2023-04-06T03:00:29;9.52;;;3.60;;
15748;SDS011;7976;52.526;13.326;2023-04-06T03:02:56;10.73;;;3.83;;
15748;SDS011;7976;52.526;13.326;2023-04-06T03:05:25;10.35;;;4.03;;
15748;SDS011;7976;52.526;13.326;2023-04-06T03:07:52;10.55;;;4.13;;
15748;SDS011;7976;52.526;13.326;2023-04-06T03:10:35;12.13;;;4.15;;
15748;SDS011;7976;52.526;13.326;2023-04-06T03:13:02;10.90;;;3.90;;
15748;SDS011;7976;52.526;13.326;2023-04-06T03:15:42;9.02;;;3.85;;
15748;SDS011;7976;52.526;13.326;2023-04-06T03:18:14;9.93;;;3.58;;
15748;SDS011;7976;52.526;13.326;2023-04-06T03:20:45;10.15;;;3.58;;
15748;SDS011;7976;52.526;13.326;2023-04-06T03:23:13;12.23;;;3.80;;
15748;SDS011;7976;52.526;13.326;2023-04-06T03:25:43;9.85;;;3.80;;
15748;SDS011;7976;52.526;13.326;2023-04-06T03:28:14;13.88;;;4.30;;
15748;SDS011;7976;52.526;13.326;2023-04-06T03:30:53;11.23;;;3.65;;
15748;SDS011;7976;52.526;13.326;2023-04-06T03:33:36;10.57;;;3.85;;
15748;SDS011;7976;52.526;13.326;2023-04-06T03:36:03;12.00;;;4.63;;
15748;SDS011;7976;52.526;13.326;2023-04-06T03:38:36;15.45;;;4.75;;
15748;SDS011;7976;52.526;13.326;2023-04-06T03:41:08;10.73;;;4.28;;
15748;SDS011;7976;52.526;13.326;2023-04-06T03:43:37;12.38;;;4.40;;
15748;SDS011;7976;52.526;13.326;2023-04-06T03:46:05;11.27;;;4.60;;
15748;SDS011;7976;52.526;13.326;2023-04-06T03:48:32;10.80;;;4.22;;
15748;SDS011;7976;52.526;13.326;2023-04-06T03:51:03;18.35;;;8.57;;
15748;SDS011;7976;52.526;13.326;2023-04-06T03:53:30;10.77;;;4.82;;
15748;SDS011;7976;52.526;13.326;2023-04-06T03:55:57;13.85;;;4.68;;
15748;SDS011;7976;52.526;13.326;2023-04-06T03:58:24;13.48;;;4.70;;
15748;SDS011;7976;52.526;13.326;2023-04-06T04:00:51;11.18;;;4.35;;
15748;SDS011;7976;52.526;13.326;2023-04-06T04:03:19;12.30;;;4.25;;
15748;SDS011;7976;52.526;13.326;2023-04-06T04:05:48;13.50;;;4.68;;
15748;SDS011;7976;52.526;13.326;2023-04-06T04:08:16;12.25;;;4.47;;
15748;SDS011;7976;52.526;13.326;2023-04-06T04:10:43;13.07;;;4.60;;
15748;SDS011;7976;52.526;13.326;2023-04-06T04:13:09;12.15;;;4.32;;
15748;SDS011;7976;52.526;13.326;2023-04-06T04:15:36;12.95;;;4.82;;
15748;SDS011;7976;52.526;13.326;2023-04-06T04:18:03;13.68;;;5.05;;
15748;SDS011;7976;52.526;13.326;2023-04-06T04:20:32;14.48;;;5.07;;
15748;SDS011;7976;52.526;13.326;2023-04-06T04:22:59;12.23;;;4.85;;
15748;SDS011;7976;52.526;13.326;2023-04-06T04:25:30;11.75;;;4.63;;
15748;SDS011;7976;52.526;13.326;2023-04-06T04:27:56;16.95;;;5.18;;
15748;SDS011;7976;52.526;13.326;2023-04-06T04:30:23;11.82;;;5.03;;
15748;SDS011;7976;52.526;13.326;2023-04-06T04:32:50;15.60;;;4.63;;
15748;SDS011;7976;52.526;13.326;2023-04-06T04:35:20;14.80;;;5.50;;
15748;SDS011;7976;52.526;13.326;2023-04-06T04:37:49;13.40;;;5.47;;
15748;SDS011;7976;52.526;13.326;2023-04-06T04:40:16;11.65;;;5.30;;
15748;SDS011;7976;52.526;13.326;2023-04-06T04:42:51;13.60;;;5.50;;
15748;SDS011;7976;52.526;13.326;2023-04-06T04:45:27;14.80;;;5.63;;
15748;SDS011;7976;52.526;13.326;2023-04-06T04:47:55;16.45;;;5.45;;
15748;SDS011;7976;52.526;13.326;2023-04-06T04:50:25;15.07;;;5.55;;
15748;SDS011;7976;52.526;13.326;2023-04-06T04:52:57;12.45;;;5.97;;
15748;SDS011;7976;52.526;13.326;2023-04-06T04:55:25;16.17;;;6.78;;
15748;SDS011;7976;52.526;13.326;2023-04-06T04:57:55;11.93;;;5.75;;
15748;SDS011;7976;52.526;13.326;2023-04-06T05:00:35;12.23;;;5.25;;
15748;SDS011;7976;52.526;13.326;2023-04-06T05:03:02;13.82;;;5.78;;
15748;SDS011;7976;52.526;13.326;2023-04-06T05:05:34;15.00;;;5.95;;
15748;SDS011;7976;52.526;13.326;2023-04-06T05:08:04;12.88;;;5.35;;
15748;SDS011;7976;52.526;13.326;2023-04-06T05:10:43;13.07;;;5.93;;
15748;SDS011;7976;52.526;13.326;2023-04-06T05:13:11;16.83;;;6.60;;
15748;SDS011;7976;52.526;13.326;2023-04-06T05:15:38;13.30;;;6.05;;
15748;SDS011;7976;52.526;13.326;2023-04-06T05:18:17;14.88;;;6.13;;
15748;SDS011;7976;52.526;13.326;2023-04-06T05:20:44;12.20;;;5.82;;
15748;SDS011;7976;52.526;13.326;2023-04-06T05:23:14;17.83;;;7.78;;
15748;SDS011;7976;52.526;13.326;2023-04-06T05:25:42;14.85;;;5.82;;
15748;SDS011;7976;52.526;13.326;2023-04-06T05:28:15;15.02;;;5.63;;
15748;SDS011;7976;52.526;13.326;2023-04-06T05:30:43;15.50;;;6.50;;
15748;SDS011;7976;52.526;13.326;2023-04-06T05:33:12;16.75;;;5.97;;
15748;SDS011;7976;52.526;13.326;2023-04-06T05:35:52;18.08;;;6.18;;
15748;SDS011;7976;52.526;13.326;2023-04-06T05:38:20;18.52;;;6.25;;
15748;SDS011;7976;52.526;13.326;2023-04-06T05:40:49;14.60;;;6.07;;
15748;SDS011;7976;52.526;13.326;2023-04-06T05:43:19;12.88;;;5.72;;
15748;SDS011;7976;52.526;13.326;2023-04-06T05:45:52;14.60;;;6.40;;
15748;SDS011;7976;52.526;13.326;2023-04-06T05:48:20;14.60;;;5.82;;
15748;SDS011;7976;52.526;13.326;2023-04-06T05:50:47;17.30;;;6.43;;
15748;SDS011;7976;52.526;13.326;2023-04-06T05:53:17;16.17;;;6.55;;
15748;SDS011;7976;52.526;13.326;2023-04-06T05:55:52;14.48;;;6.72;;
15748;SDS011;7976;52.526;13.326;2023-04-06T05:58:20;15.77;;;5.72;;
15748;SDS011;7976;52.526;13.326;2023-04-06T06:00:50;18.52;;;7.85;;
15748;SDS011;7976;52.526;13.326;2023-04-06T06:03:22;15.43;;;6.95;;
15748;SDS011;7976;52.526;13.326;2023-04-06T06:05:52;15.68;;;6.70;;
15748;SDS011;7976;52.526;13.326;2023-04-06T06:08:27;17.92;;;6.88;;
15748;SDS011;7976;52.526;13.326;2023-04-06T06:10:56;13.23;;;6.47;;
15748;SDS011;7976;52.526;13.326;2023-04-06T06:13:24;21.55;;;7.03;;
15748;SDS011;7976;52.526;13.326;2023-04-06T06:15:53;19.13;;;6.97;;
15748;SDS011;7976;52.526;13.326;2023-04-06T06:18:21;22.08;;;7.68;;
15748;SDS011;7976;52.526;13.326;2023-04-06T06:20:51;14.45;;;6.75;;
15748;SDS011;7976;52.526;13.326;2023-04-06T06:23:19;17.45;;;7.25;;
15748;SDS011;7976;52.526;13.326;2023-04-06T06:25:46;16.10;;;7.25;;
15748;SDS011;7976;52.526;13.326;2023-04-06T06:28:14;14.18;;;6.93;;
15748;SDS011;7976;52.526;13.326;2023-04-06T06:30:41;17.58;;;7.25;;
15748;SDS011;7976;52.526;13.326;2023-04-06T06:33:08;13.82;;;6.53;;
15748;SDS011;7976;52.526;13.326;2023-04-06T06:35:35;13.63;;;6.72;;
15748;SDS011;7976;52.526;13.326;2023-04-06T06:38:04;19.30;;;6.60;;
15748;SDS011;7976;52.526;13.326;2023-04-06T06:40:33;16.00;;;6.95;;
15748;SDS011;7976;52.526;13.326;2023-04-06T06:43:00;15.52;;;7.18;;
15748;SDS011;7976;52.526;13.326;2023-04-06T06:45:34;15.25;;;6.55;;
15748;SDS011;7976;52.526;13.326;2023-04-06T06:48:01;12.90;;;6.10;;
15748;SDS011;7976;52.526;13.326;2023-04-06T06:50:28;15.60;;;6.80;;
15748;SDS011;7976;52.526;13.326;2023-04-06T06:52:55;14.30;;;6.35;;
15748;SDS011;7976;52.526;13.326;2023-04-06T06:55:22;15.65;;;6.25;;
15748;SDS011;7976;52.526;13.326;2023-04-06T06:57:50;14.93;;;6.07;;
15748;SDS011;7976;52.526;13.326;2023-04-06T07:00:17;16.92;;;6.65;;
15748;SDS011;7976;52.526;13.326;2023-04-06T07:02:47;15.02;;;6.32;;
15748;SDS011;7976;52.526;13.326;2023-04-06T07:05:16;12.55;;;6.47;;
15748;SDS011;7976;52.526;13.326;2023-04-06T07:07:43;14.60;;;5.97;;
15748;SDS011;7976;52.526;13.326;2023-04-06T07:10:10;15.70;;;5.95;;
15748;SDS011;7976;52.526;13.326;2023-04-06T07:12:37;14.95;;;5.95;;
15748;SDS011;7976;52.526;13.326;2023-04-06T07:15:04;12.40;;;6.13;;
15748;SDS011;7976;52.526;13.326;2023-04-06T07:17:33;13.23;;;5.22;;
15748;SDS011;7976;52.526;13.326;2023-04-06T07:20:01;13.15;;;5.70;;
15748;SDS011;7976;52.526;13.326;2023-04-06T07:22:30;16.63;;;6.03;;
15748;SDS011;7976;52.526;13.326;2023-04-06T07:24:57;14.05;;;5.75;;
15748;SDS011;7976;52.526;13.326;2023-04-06T07:27:23;16.55;;;5.78;;
15748;SDS011;7976;52.526;13.326;2023-04-06T07:29:50;13.52;;;5.53;;
15748;SDS011;7976;52.526;13.326;2023-04-06T07:32:17;14.85;;;5.07;;
15748;SDS011;7976;52.526;13.326;2023-04-06T07:34:45;12.77;;;5.47;;
15748;SDS011;7976;52.526;13.326;2023-04-06T07:37:13;13.18;;;5.45;;
15748;SDS011;7976;52.526;13.326;2023-04-06T07:39:40;14.27;;;5.90;;
15748;SDS011;7976;52.526;13.326;2023-04-06T07:42:07;13.07;;;5.20;;
15748;SDS011;7976;52.526;13.326;2023-04-06T07:44:34;11.15;;;4.90;;
15748;SDS011;7976;52.526;13.326;2023-04-06T07:47:01;12.43;;;4.80;;
15748;SDS011;7976;52.526;13.326;2023-04-06T07:49:27;14.32;;;5.70;;
15748;SDS011;7976;52.526;13.326;2023-04-06T07:51:55;10.25;;;4.40;;
15748;SDS011;7976;52.526;13.326;2023-04-06T07:54:23;14.85;;;4.97;;
15748;SDS011;7976;52.526;13.326;2023-04-06T07:56:50;15.38;;;4.70;;
15748;SDS011;7976;52.526;13.326;2023-04-06T07:59:17;13.68;;;5.45;;
15748;SDS011;7976;52.526;13.326;2023-04-06T08:01:47;13.48;;;4.85;;
15748;SDS011;7976;52.526;13.326;2023-04-06T08:04:14;14.55;;;4.90;;
15748;SDS011;7976;52.526;13.326;2023-04-06T08:06:41;9.63;;;3.95;;
15748;SDS011;7976;52.526;13.326;2023-04-06T08:09:07;10.70;;;4.20;;
15748;SDS011;7976;52.526;13.326;2023-04-06T08:11:35;13.65;;;3.92;;
15748;SDS011;7976;52.526;13.326;2023-04-06T08:14:02;12.32;;;4.60;;
15748;SDS011;7976;52.526;13.326;2023-04-06T08:16:29;12.35;;;3.97;;
15748;SDS011;7976;52.526;13.326;2023-04-06T08:18:56;10.25;;;4.00;;
15748;SDS011;7976;52.526;13.326;2023-04-06T08:21:23;12.77;;;3.78;;
15748;SDS011;7976;52.526;13.326;2023-04-06T08:23:50;8.63;;;3.55;;
15748;SDS011;7976;52.526;13.326;2023-04-06T08:26:16;9.40;;;3.65;;
15748;SDS011;7976;52.526;13.326;2023-04-06T08:28:44;11.00;;;3.58;;
15748;SDS011;7976;52.526;13.326;2023-04-06T08:31:11;8.68;;;3.15;;
15748;SDS011;7976;52.526;13.326;2023-04-06T08:33:38;10.13;;;3.00;;
15748;SDS011;7976;52.526;13.326;2023-04-06T08:36:09;11.93;;;3.58;;
15748;SDS011;7976;52.526;13.326;2023-04-06T08:38:38;9.15;;;3.50;;
15748;SDS011;7976;52.526;13.326;2023-04-06T08:41:08;11.35;;;3.25;;
15748;SDS011;7976;52.526;13.326;2023-04-06T08:43:38;9.55;;;2.70;;
15748;SDS011;7976;52.526;13.326;2023-04-06T08:46:11;8.85;;;2.88;;
15748;SDS011;7976;52.526;13.326;2023-04-06T08:48:38;8.38;;;3.00;;
15748;SDS011;7976;52.526;13.326;2023-04-06T08:51:07;10.27;;;3.13;;
15748;SDS011;7976;52.526;13.326;2023-04-06T08:53:34;7.05;;;2.20;;
15748;SDS011;7976;52.526;13.326;2023-04-06T08:56:02;9.50;;;2.50;;
15748;SDS011;7976;52.526;13.326;2023-04-06T08:58:32;8.57;;;2.38;;
15748;SDS011;7976;52.526;13.326;2023-04-06T09:01:02;10.07;;;2.63;;
15748;SDS011;7976;52.526;13.326;2023-04-06T09:03:37;8.38;;;2.40;;
15748;SDS011;7976;52.526;13.326;2023-04-06T09:06:06;8.60;;;2.50;;
15748;SDS011;7976;52.526;13.326;2023-04-06T09:08:34;9.15;;;2.85;;
15748;SDS011;7976;52.526;13.326;2023-04-06T09:11:02;7.25;;;2.70;;
15748;SDS011;7976;52.526;13.326;2023-04-06T09:13:30;8.65;;;2.80;;
15748;SDS011;7976;52.526;13.326;2023-04-06T09:16:00;6.85;;;2.30;;
15748;SDS011;7976;52.526;13.326;2023-04-06T09:18:29;8.80;;;2.75;;
15748;SDS011;7976;52.526;13.326;2023-04-06T09:20:59;9.35;;;2.67;;
15748;SDS011;7976;52.526;13.326;2023-04-06T09:23:27;8.55;;;2.45;;
15748;SDS011;7976;52.526;13.326;2023-04-06T09:26:04;9.30;;;2.58;;
15748;SDS011;7976;52.526;13.326;2023-04-06T09:28:46;7.38;;;2.42;;
15748;SDS011;7976;52.526;13.326;2023-04-06T09:31:16;7.38;;;2.13;;
15748;SDS011;7976;52.526;13.326;2023-04-06T09:33:49;8.68;;;2.20;;
15748;SDS011;7976;52.526;13.326;2023-04-06T09:36:18;8.85;;;2.33;;
15748;SDS011;7976;52.526;13.326;2023-04-06T09:38:52;6.65;;;2.20;;
15748;SDS011;7976;52.526;13.326;2023-04-06T09:41:22;8.30;;;2.25;;
15748;SDS011;7976;52.526;13.326;2023-04-06T09:43:51;8.00;;;2.50;;
15748;SDS011;7976;52.526;13.326;2023-04-06T09:46:28;8.23;;;2.75;;
15748;SDS011;7976;52.526;13.326;2023-04-06T09:48:59;8.05;;;2.25;;
15748;SDS011;7976;52.526;13.326;2023-04-06T09:51:30;7.30;;;2.13;;
15748;SDS011;7976;52.526;13.326;2023-04-06T09:54:02;7.63;;;2.08;;
15748;SDS011;7976;52.526;13.326;2023-04-06T09:56:32;7.25;;;1.90;;
15748;SDS011;7976;52.526;13.326;2023-04-06T09:59:13;7.40;;;2.30;;
15748;SDS011;7976;52.526;13.326;2023-04-06T10:01:46;7.05;;;2.22;;
15748;SDS011;7976;52.526;13.326;2023-04-06T10:04:21;7.32;;;2.40;;
15748;SDS011;7976;52.526;13.326;2023-04-06T10:07:02;9.52;;;3.10;;
15748;SDS011;7976;52.526;13.326;2023-04-06T10:09:32;9.43;;;2.65;;
15748;SDS011;7976;52.526;13.326;2023-04-06T10:12:03;10.25;;;2.53;;
15748;SDS011;7976;52.526;13.326;2023-04-06T10:14:31;7.32;;;2.25;;
15748;SDS011;7976;52.526;13.326;2023-04-06T10:17:02;6.30;;;2.00;;
15748;SDS011;7976;52.526;13.326;2023-04-06T10:19:33;8.63;;;2.33;;
15748;SDS011;7976;52.526;13.326;2023-04-06T10:22:12;8.52;;;2.10;;
15748;SDS011;7976;52.526;13.326;2023-04-06T10:24:50;7.95;;;1.90;;
15748;SDS011;7976;52.526;13.326;2023-04-06T10:27:27;7.05;;;1.85;;
15748;SDS011;7976;52.526;13.326;2023-04-06T10:30:00;6.78;;;2.40;;
15748;SDS011;7976;52.526;13.326;2023-04-06T10:32:35;6.47;;;2.20;;
15748;SDS011;7976;52.526;13.326;2023-04-06T10:35:07;6.55;;;1.90;;
15748;SDS011;7976;52.526;13.326;2023-04-06T10:37:49;6.22;;;2.05;;
15748;SDS011;7976;52.526;13.326;2023-04-06T10:40:19;6.38;;;2.33;;
15748;SDS011;7976;52.526;13.326;2023-04-06T10:42:51;5.70;;;2.08;;
15748;SDS011;7976;52.526;13.326;2023-04-06T10:45:19;7.80;;;2.60;;
15748;SDS011;7976;52.526;13.326;2023-04-06T10:47:48;7.70;;;2.40;;
15748;SDS011;7976;52.526;13.326;2023-04-06T10:50:15;7.85;;;3.00;;
15748;SDS011;7976;52.526;13.326;2023-04-06T10:52:43;8.07;;;2.72;;
15748;SDS011;7976;52.526;13.326;2023-04-06T10:55:13;9.02;;;2.35;;
15748;SDS011;7976;52.526;13.326;2023-04-06T10:57:42;6.85;;;2.47;;
15748;SDS011;7976;52.526;13.326;2023-04-06T11:00:12;8.07;;;2.60;;
15748;SDS011;7976;52.526;13.326;2023-04-06T11:02:40;7.57;;;2.35;;
15748;SDS011;7976;52.526;13.326;2023-04-06T11:05:07;8.13;;;2.72;;
15748;SDS011;7976;52.526;13.326;2023-04-06T11:07:37;8.00;;;2.72;;
15748;SDS011;7976;52.526;13.326;2023-04-06T11:10:06;8.80;;;2.58;;
15748;SDS011;7976;52.526;13.326;2023-04-06T11:12:36;7.70;;;2.20;;
15748;SDS011;7976;52.526;13.326;2023-04-06T11:15:03;8.02;;;2.15;;
15748;SDS011;7976;52.526;13.326;2023-04-06T11:17:31;8.02;;;2.60;;
15748;SDS011;7976;52.526;13.326;2023-04-06T11:20:00;6.53;;;2.20;;
15748;SDS011;7976;52.526;13.326;2023-04-06T11:22:30;6.57;;;2.35;;
15748;SDS011;7976;52.526;13.326;2023-04-06T11:25:04;7.93;;;2.40;;
15748;SDS011;7976;52.526;13.326;2023-04-06T11:27:32;7.28;;;2.13;;
15748;SDS011;7976;52.526;13.326;2023-04-06T11:30:02;8.48;;;2.55;;
15748;SDS011;7976;52.526;13.326;2023-04-06T11:32:39;8.15;;;2.45;;
15748;SDS011;7976;52.526;13.326;2023-04-06T11:35:07;6.70;;;2.28;;
15748;SDS011;7976;52.526;13.326;2023-04-06T11:37:37;9.40;;;2.80;;
15748;SDS011;7976;52.526;13.326;2023-04-06T11:40:07;8.50;;;3.45;;
15748;SDS011;7976;52.526;13.326;2023-04-06T11:42:35;7.45;;;2.60;;
15748;SDS011;7976;52.526;13.326;2023-04-06T11:45:04;8.80;;;2.80;;
15748;SDS011;7976;52.526;13.326;2023-04-06T11:47:36;6.53;;;2.30;;
15748;SDS011;7976;52.526;13.326;2023-04-06T11:50:06;7.32;;;2.05;;
15748;SDS011;7976;52.526;13.326;2023-04-06T11:52:35;6.55;;;2.30;;
15748;SDS011;7976;52.526;13.326;2023-04-06T11:55:11;8.80;;;2.65;;
15748;SDS011;7976;52.526;13.326;2023-04-06T11:57:40;8.40;;;2.65;;
15748;SDS011;7976;52.526;13.326;2023-04-06T12:00:10;8.40;;;2.70;;
15748;SDS011;7976;52.526;13.326;2023-04-06T12:02:38;10.15;;;4.13;;
15748;SDS011;7976;52.526;13.326;2023-04-06T12:05:06;8.02;;;2.80;;
15748;SDS011;7976;52.526;13.326;2023-04-06T12:07:34;9.68;;;2.80;;
15748;SDS011;7976;52.526;13.326;2023-04-06T12:10:01;9.77;;;2.63;;
15748;SDS011;7976;52.526;13.326;2023-04-06T12:12:30;8.05;;;3.00;;
15748;SDS011;7976;52.526;13.326;2023-04-06T12:14:57;7.68;;;2.53;;
15748;SDS011;7976;52.526;13.326;2023-04-06T12:17:26;7.45;;;2.95;;
15748;SDS011;7976;52.526;13.326;2023-04-06T12:19:57;10.23;;;3.13;;
15748;SDS011;7976;52.526;13.326;2023-04-06T12:22:24;9.43;;;2.65;;
15748;SDS011;7976;52.526;13.326;2023-04-06T12:24:51;6.70;;;2.50;;
15748;SDS011;7976;52.526;13.326;2023-04-06T12:27:18;7.75;;;2.72;;
15748;SDS011;7976;52.526;13.326;2023-04-06T12:29:54;7.70;;;2.80;;
15748;SDS011;7976;52.526;13.326;2023-04-06T12:32:21;8.23;;;3.00;;
15748;SDS011;7976;52.526;13.326;2023-04-06T12:34:50;8.90;;;2.97;;
15748;SDS011;7976;52.526;13.326;2023-04-06T12:37:18;7.13;;;2.85;;
15748;SDS011;7976;52.526;13.326;2023-04-06T12:39:46;10.57;;;4.03;;
15748;SDS011;7976;52.526;13.326;2023-04-06T12:42:12;8.25;;;3.38;;
15748;SDS011;7976;52.526;13.326;2023-04-06T12:44:39;9.77;;;3.72;;
15748;SDS011;7976;52.526;13.326;2023-04-06T12:47:07;7.40;;;2.60;;
15748;SDS011;7976;52.526;13.326;2023-04-06T12:49:35;5.45;;;2.22;;
15748;SDS011;7976;52.526;13.326;2023-04-06T12:52:04;8.75;;;2.80;;
15748;SDS011;7976;52.526;13.326;2023-04-06T12:54:31;8.65;;;2.75;;
15748;SDS011;7976;52.526;13.326;2023-04-06T12:56:57;7.35;;;2.67;;
15748;SDS011;7976;52.526;13.326;2023-04-06T12:59:28;7.28;;;2.50;;
15748;SDS011;7976;52.526;13.326;2023-04-06T13:01:59;10.20;;;2.90;;
15748;SDS011;7976;52.526;13.326;2023-04-06T13:04:26;8.13;;;2.60;;
15748;SDS011;7976;52.526;13.326;2023-04-06T13:06:53;7.50;;;2.83;;
15748;SDS011;7976;52.526;13.326;2023-04-06T13:09:21;9.40;;;2.78;;
15748;SDS011;7976;52.526;13.326;2023-04-06T13:11:48;8.43;;;2.90;;
15748;SDS011;7976;52.526;13.326;2023-04-06T13:14:15;10.32;;;3.30;;
15748;SDS011;7976;52.526;13.326;2023-04-06T13:16:42;9.10;;;2.95;;
15748;SDS011;7976;52.526;13.326;2023-04-06T13:19:09;10.50;;;3.00;;
15748;SDS011;7976;52.526;13.326;2023-04-06T13:21:36;8.38;;;2.72;;
15748;SDS011;7976;52.526;13.326;2023-04-06T13:24:03;7.40;;;2.78;;
15748;SDS011;7976;52.526;13.326;2023-04-06T13:26:32;9.48;;;3.47;;
15748;SDS011;7976;52.526;13.326;2023-04-06T13:28:59;7.65;;;2.80;;
15748;SDS011;7976;52.526;13.326;2023-04-06T13:31:27;8.48;;;2.90;;
15748;SDS011;7976;52.526;13.326;2023-04-06T13:33:54;8.27;;;2.75;;
15748;SDS011;7976;52.526;13.326;2023-04-06T13:36:21;9.27;;;3.03;;
15748;SDS011;7976;52.526;13.326;2023-04-06T13:38:48;9.55;;;3.00;;
15748;SDS011;7976;52.526;13.326;2023-04-06T13:41:19;7.35;;;2.90;;
15748;SDS011;7976;52.526;13.326;2023-04-06T13:43:48;8.25;;;3.05;;
15748;SDS011;7976;52.526;13.326;2023-04-06T13:46:15;9.82;;;3.25;;
15748;SDS011;7976;52.526;13.326;2023-04-06T13:48:42;10.77;;;3.92;;
15748;SDS011;7976;52.526;13.326;2023-04-06T13:51:10;7.68;;;2.90;;
15748;SDS011;7976;52.526;13.326;2023-04-06T13:53:38;7.75;;;3.00;;
15748;SDS011;7976;52.526;13.326;2023-04-06T13:56:06;9.02;;;2.75;;
15748;SDS011;7976;52.526;13.326;2023-04-06T13:58:34;8.88;;;3.15;;
15748;SDS011;7976;52.526;13.326;2023-04-06T14:01:03;9.00;;;3.45;;
15748;SDS011;7976;52.526;13.326;2023-04-06T14:03:32;8.48;;;3.05;;
15748;SDS011;7976;52.526;13.326;2023-04-06T14:05:59;9.45;;;3.08;;
15748;SDS011;7976;52.526;13.326;2023-04-06T14:08:26;8.63;;;2.75;;
15748;SDS011;7976;52.526;13.326;2023-04-06T14:10:52;7.82;;;2.90;;
15748;SDS011;7976;52.526;13.326;2023-04-06T14:13:21;8.45;;;2.90;;
15748;SDS011;7976;52.526;13.326;2023-04-06T14:15:52;10.07;;;3.17;;
15748;SDS011;7976;52.526;13.326;2023-04-06T14:18:21;8.50;;;2.90;;
15748;SDS011;7976;52.526;13.326;2023-04-06T14:20:53;9.13;;;3.22;;
15748;SDS011;7976;52.526;13.326;2023-04-06T14:23:21;7.82;;;2.80;;
15748;SDS011;7976;52.526;13.326;2023-04-06T14:25:48;8.90;;;2.88;;
15748;SDS011;7976;52.526;13.326;2023-04-06T14:28:15;7.72;;;2.70;;
15748;SDS011;7976;52.526;13.326;2023-04-06T14:30:42;7.65;;;2.47;;
15748;SDS011;7976;52.526;13.326;2023-04-06T14:33:09;7.03;;;2.75;;
15748;SDS011;7976;52.526;13.326;2023-04-06T14:35:38;9.90;;;2.83;;
15748;SDS011;7976;52.526;13.326;2023-04-06T14:38:05;8.68;;;2.80;;
15748;SDS011;7976;52.526;13.326;2023-04-06T14:40:34;9.30;;;2.67;;
15748;SDS011;7976;52.526;13.326;2023-04-06T14:43:02;8.70;;;2.70;;
15748;SDS011;7976;52.526;13.326;2023-04-06T14:45:32;8.88;;;2.95;;
15748;SDS011;7976;52.526;13.326;2023-04-06T14:48:01;9.88;;;3.03;;
15748;SDS011;7976;52.526;13.326;2023-04-06T14:50:30;8.32;;;2.72;;
15748;SDS011;7976;52.526;13.326;2023-04-06T14:52:59;8.13;;;2.85;;